sensor_id;sensor_type;location;lat;lon;timestamp;P1;durP1;ratioP1;P2;durP2;ratioP2
15516;SDS011;7860;52.030;5.572;2022-11-30T00:02:52;24.74;;;18.59;;
15516;SDS011;7860;52.030;5.572;2022-11-30T00:02:52;25.33;;;18.89;;
15516;SDS011;7860;52.030;5.572;2022-11-30T00:03:35;25.21;;;19.86;;
15516;SDS011;7860;52.030;5.572;2022-11-30T00:04:36;26.38;;;20.26;;
15516;SDS011;7860;52.030;5.572;2022-11-30T00:05:36;25.12;;;19.50;;
15516;SDS011;7860;52.030;5.572;2022-11-30T00:06:40;24.50;;;20.09;;
15516;SDS011;7860;52.030;5.572;2022-11-30T00:07:37;24.90;;;19.52;;
15516;SDS011;7860;52.030;5.572;2022-11-30T00:08:38;26.36;;;20.30;;
15516;SDS011;7860;52.030;5.572;2022-11-30T00:09:38;25.24;;;21.04;;
15516;SDS011;7860;52.030;5.572;2022-11-30T00:10:39;25.82;;;19.72;;
15516;SDS011;7860;52.030;5.572;2022-11-30T00:11:39;25.39;;;20.03;;
15516;SDS011;7860;52.030;5.572;2022-11-30T00:12:42;25.74;;;20.13;;
15516;SDS011;7860;52.030;5.572;2022-11-30T00:13:41;24.60;;;19.56;;
15516;SDS011;7860;52.030;5.572;2022-11-30T00:14:43;25.50;;;19.49;;
15516;SDS011;7860;52.030;5.572;2022-11-30T00:15:40;27.04;;;19.96;;
15516;SDS011;7860;52.030;5.572;2022-11-30T00:16:41;25.43;;;19.75;;
15516;SDS011;7860;52.030;5.572;2022-11-30T00:17:41;26.99;;;20.41;;
15516;SDS011;7860;52.030;5.572;2022-11-30T00:18:42;25.26;;;19.25;;
15516;SDS011;7860;52.030;5.572;2022-11-30T00:19:43;25.47;;;18.62;;
15516;SDS011;7860;52.030;5.572;2022-11-30T00:20:43;25.07;;;19.92;;
15516;SDS011;7860;52.030;5.572;2022-11-30T00:21:43;25.92;;;19.99;;
15516;SDS011;7860;52.030;5.572;2022-11-30T00:22:44;25.64;;;19.61;;
15516;SDS011;7860;52.030;5.572;2022-11-30T00:23:45;27.65;;;19.68;;
15516;SDS011;7860;52.030;5.572;2022-11-30T00:24:45;26.62;;;20.18;;
15516;SDS011;7860;52.030;5.572;2022-11-30T00:25:48;26.15;;;20.42;;
15516;SDS011;7860;52.030;5.572;2022-11-30T00:26:45;26.12;;;19.00;;
15516;SDS011;7860;52.030;5.572;2022-11-30T00:27:46;24.29;;;18.67;;
15516;SDS011;7860;52.030;5.572;2022-11-30T00:28:46;25.30;;;17.27;;
15516;SDS011;7860;52.030;5.572;2022-11-30T00:29:47;24.04;;;16.94;;
15516;SDS011;7860;52.030;5.572;2022-11-30T00:30:55;24.89;;;16.92;;
15516;SDS011;7860;52.030;5.572;2022-11-30T00:31:51;27.75;;;18.45;;
15516;SDS011;7860;52.030;5.572;2022-11-30T00:32:48;27.89;;;17.73;;
15516;SDS011;7860;52.030;5.572;2022-11-30T00:33:49;24.03;;;17.28;;
15516;SDS011;7860;52.030;5.572;2022-11-30T00:34:50;22.85;;;16.12;;
15516;SDS011;7860;52.030;5.572;2022-11-30T00:35:55;23.83;;;16.66;;
15516;SDS011;7860;52.030;5.572;2022-11-30T00:36:51;24.72;;;16.24;;
15516;SDS011;7860;52.030;5.572;2022-11-30T00:37:51;26.26;;;17.40;;
15516;SDS011;7860;52.030;5.572;2022-11-30T00:38:52;23.05;;;16.76;;
15516;SDS011;7860;52.030;5.572;2022-11-30T00:39:52;24.60;;;17.26;;
15516;SDS011;7860;52.030;5.572;2022-11-30T00:40:53;24.61;;;17.20;;
15516;SDS011;7860;52.030;5.572;2022-11-30T00:41:53;24.86;;;17.03;;
15516;SDS011;7860;52.030;5.572;2022-11-30T00:42:54;24.24;;;17.22;;
15516;SDS011;7860;52.030;5.572;2022-11-30T00:43:54;25.15;;;17.15;;
15516;SDS011;7860;52.030;5.572;2022-11-30T00:44:54;23.71;;;17.31;;
15516;SDS011;7860;52.030;5.572;2022-11-30T00:45:54;23.95;;;17.54;;
15516;SDS011;7860;52.030;5.572;2022-11-30T00:46:55;25.28;;;17.40;;
15516;SDS011;7860;52.030;5.572;2022-11-30T00:47:55;24.10;;;17.41;;
15516;SDS011;7860;52.030;5.572;2022-11-30T00:48:57;25.05;;;18.60;;
15516;SDS011;7860;52.030;5.572;2022-11-30T00:49:59;22.77;;;17.35;;
15516;SDS011;7860;52.030;5.572;2022-11-30T00:51:00;24.68;;;18.08;;
15516;SDS011;7860;52.030;5.572;2022-11-30T00:51:57;24.90;;;17.67;;
15516;SDS011;7860;52.030;5.572;2022-11-30T00:52:59;25.99;;;18.36;;
15516;SDS011;7860;52.030;5.572;2022-11-30T00:53:58;24.73;;;17.76;;
15516;SDS011;7860;52.030;5.572;2022-11-30T00:54:59;24.58;;;18.41;;
15516;SDS011;7860;52.030;5.572;2022-11-30T00:56:00;24.04;;;18.60;;
15516;SDS011;7860;52.030;5.572;2022-11-30T00:57:00;24.91;;;18.14;;
15516;SDS011;7860;52.030;5.572;2022-11-30T00:58:01;25.52;;;18.49;;
15516;SDS011;7860;52.030;5.572;2022-11-30T00:59:01;23.86;;;17.95;;
15516;SDS011;7860;52.030;5.572;2022-11-30T01:00:03;25.52;;;17.97;;
15516;SDS011;7860;52.030;5.572;2022-11-30T01:01:02;24.24;;;17.94;;
15516;SDS011;7860;52.030;5.572;2022-11-30T01:02:03;26.64;;;18.84;;
15516;SDS011;7860;52.030;5.572;2022-11-30T01:03:06;25.91;;;19.43;;
15516;SDS011;7860;52.030;5.572;2022-11-30T01:04:03;25.27;;;18.56;;
15516;SDS011;7860;52.030;5.572;2022-11-30T01:05:04;23.63;;;17.67;;
15516;SDS011;7860;52.030;5.572;2022-11-30T01:06:06;24.50;;;18.10;;
15516;SDS011;7860;52.030;5.572;2022-11-30T01:07:05;27.16;;;18.54;;
15516;SDS011;7860;52.030;5.572;2022-11-30T01:08:09;25.10;;;18.49;;
15516;SDS011;7860;52.030;5.572;2022-11-30T01:09:06;26.01;;;18.21;;
15516;SDS011;7860;52.030;5.572;2022-11-30T01:10:07;25.87;;;18.83;;
15516;SDS011;7860;52.030;5.572;2022-11-30T01:11:06;25.62;;;18.40;;
15516;SDS011;7860;52.030;5.572;2022-11-30T01:12:07;25.93;;;18.90;;
15516;SDS011;7860;52.030;5.572;2022-11-30T01:13:07;25.08;;;18.69;;
15516;SDS011;7860;52.030;5.572;2022-11-30T01:14:08;24.85;;;18.51;;
15516;SDS011;7860;52.030;5.572;2022-11-30T01:15:08;26.52;;;19.08;;
15516;SDS011;7860;52.030;5.572;2022-11-30T01:16:09;25.74;;;18.15;;
15516;SDS011;7860;52.030;5.572;2022-11-30T01:17:09;27.48;;;19.50;;
15516;SDS011;7860;52.030;5.572;2022-11-30T01:18:10;25.22;;;18.75;;
15516;SDS011;7860;52.030;5.572;2022-11-30T01:19:13;25.36;;;18.90;;
15516;SDS011;7860;52.030;5.572;2022-11-30T01:20:11;26.38;;;18.83;;
15516;SDS011;7860;52.030;5.572;2022-11-30T01:21:16;24.13;;;18.30;;
15516;SDS011;7860;52.030;5.572;2022-11-30T01:22:12;25.75;;;18.50;;
15516;SDS011;7860;52.030;5.572;2022-11-30T01:23:12;24.64;;;18.68;;
15516;SDS011;7860;52.030;5.572;2022-11-30T01:24:13;25.88;;;18.72;;
15516;SDS011;7860;52.030;5.572;2022-11-30T01:25:13;25.89;;;18.70;;
15516;SDS011;7860;52.030;5.572;2022-11-30T01:26:14;26.66;;;19.24;;
15516;SDS011;7860;52.030;5.572;2022-11-30T01:27:14;25.45;;;18.78;;
15516;SDS011;7860;52.030;5.572;2022-11-30T01:28:14;26.16;;;18.45;;
15516;SDS011;7860;52.030;5.572;2022-11-30T01:29:15;26.35;;;19.05;;
15516;SDS011;7860;52.030;5.572;2022-11-30T01:30:16;25.31;;;18.19;;
15516;SDS011;7860;52.030;5.572;2022-11-30T01:31:16;25.25;;;18.50;;
15516;SDS011;7860;52.030;5.572;2022-11-30T01:32:17;24.34;;;17.87;;
15516;SDS011;7860;52.030;5.572;2022-11-30T01:33:17;24.90;;;17.80;;
15516;SDS011;7860;52.030;5.572;2022-11-30T01:34:17;24.27;;;18.26;;
15516;SDS011;7860;52.030;5.572;2022-11-30T01:35:18;23.32;;;16.92;;
15516;SDS011;7860;52.030;5.572;2022-11-30T01:36:19;24.91;;;18.18;;
15516;SDS011;7860;52.030;5.572;2022-11-30T01:37:19;23.99;;;18.17;;
15516;SDS011;7860;52.030;5.572;2022-11-30T01:38:20;24.95;;;18.24;;
15516;SDS011;7860;52.030;5.572;2022-11-30T01:39:20;25.10;;;17.69;;
15516;SDS011;7860;52.030;5.572;2022-11-30T01:40:21;22.99;;;17.13;;
15516;SDS011;7860;52.030;5.572;2022-11-30T01:41:22;25.64;;;18.55;;
15516;SDS011;7860;52.030;5.572;2022-11-30T01:42:22;24.29;;;17.62;;
15516;SDS011;7860;52.030;5.572;2022-11-30T01:43:35;24.14;;;17.53;;
15516;SDS011;7860;52.030;5.572;2022-11-30T01:45:23;22.94;;;16.75;;
15516;SDS011;7860;52.030;5.572;2022-11-30T01:46:25;24.84;;;17.31;;
15516;SDS011;7860;52.030;5.572;2022-11-30T01:47:25;24.18;;;17.75;;
15516;SDS011;7860;52.030;5.572;2022-11-30T01:48:24;24.92;;;17.69;;
15516;SDS011;7860;52.030;5.572;2022-11-30T01:49:26;26.06;;;18.41;;
15516;SDS011;7860;52.030;5.572;2022-11-30T01:50:39;26.05;;;18.01;;
15516;SDS011;7860;52.030;5.572;2022-11-30T01:51:41;23.96;;;17.76;;
15516;SDS011;7860;52.030;5.572;2022-11-30T01:52:40;24.91;;;17.66;;
15516;SDS011;7860;52.030;5.572;2022-11-30T01:53:40;22.63;;;16.42;;
15516;SDS011;7860;52.030;5.572;2022-11-30T01:54:41;24.95;;;18.76;;
15516;SDS011;7860;52.030;5.572;2022-11-30T01:55:41;24.87;;;17.82;;
15516;SDS011;7860;52.030;5.572;2022-11-30T01:56:43;25.59;;;17.72;;
15516;SDS011;7860;52.030;5.572;2022-11-30T01:57:43;24.51;;;18.17;;
15516;SDS011;7860;52.030;5.572;2022-11-30T01:58:45;24.09;;;17.65;;
15516;SDS011;7860;52.030;5.572;2022-11-30T01:59:43;27.09;;;19.24;;
15516;SDS011;7860;52.030;5.572;2022-11-30T02:00:45;23.47;;;17.78;;
15516;SDS011;7860;52.030;5.572;2022-11-30T02:01:44;25.00;;;18.69;;
15516;SDS011;7860;52.030;5.572;2022-11-30T02:02:47;26.31;;;19.41;;
15516;SDS011;7860;52.030;5.572;2022-11-30T02:03:45;24.30;;;18.49;;
15516;SDS011;7860;52.030;5.572;2022-11-30T02:04:54;25.26;;;18.49;;
15516;SDS011;7860;52.030;5.572;2022-11-30T02:05:45;25.51;;;17.84;;
15516;SDS011;7860;52.030;5.572;2022-11-30T02:06:46;25.97;;;18.69;;
15516;SDS011;7860;52.030;5.572;2022-11-30T02:07:46;25.59;;;18.66;;
15516;SDS011;7860;52.030;5.572;2022-11-30T02:08:46;24.57;;;17.72;;
15516;SDS011;7860;52.030;5.572;2022-11-30T02:09:46;25.69;;;18.67;;
15516;SDS011;7860;52.030;5.572;2022-11-30T02:10:50;25.22;;;18.39;;
15516;SDS011;7860;52.030;5.572;2022-11-30T02:11:50;25.12;;;18.45;;
15516;SDS011;7860;52.030;5.572;2022-11-30T02:12:54;25.03;;;18.53;;
15516;SDS011;7860;52.030;5.572;2022-11-30T02:13:54;24.87;;;17.23;;
15516;SDS011;7860;52.030;5.572;2022-11-30T02:14:49;24.69;;;17.41;;
15516;SDS011;7860;52.030;5.572;2022-11-30T02:15:52;22.97;;;16.80;;
15516;SDS011;7860;52.030;5.572;2022-11-30T02:16:52;23.22;;;16.89;;
15516;SDS011;7860;52.030;5.572;2022-11-30T02:17:52;23.58;;;16.97;;
15516;SDS011;7860;52.030;5.572;2022-11-30T02:18:53;25.52;;;18.95;;
15516;SDS011;7860;52.030;5.572;2022-11-30T02:19:55;22.77;;;17.74;;
15516;SDS011;7860;52.030;5.572;2022-11-30T02:20:54;22.72;;;17.35;;
15516;SDS011;7860;52.030;5.572;2022-11-30T02:21:54;23.54;;;17.95;;
15516;SDS011;7860;52.030;5.572;2022-11-30T02:22:58;25.28;;;18.19;;
15516;SDS011;7860;52.030;5.572;2022-11-30T02:24:04;22.00;;;17.05;;
15516;SDS011;7860;52.030;5.572;2022-11-30T02:24:57;24.42;;;17.83;;
15516;SDS011;7860;52.030;5.572;2022-11-30T02:25:55;23.45;;;17.65;;
15516;SDS011;7860;52.030;5.572;2022-11-30T02:26:59;26.82;;;18.29;;
15516;SDS011;7860;52.030;5.572;2022-11-30T02:27:59;25.85;;;18.60;;
15516;SDS011;7860;52.030;5.572;2022-11-30T02:29:03;25.06;;;18.40;;
15516;SDS011;7860;52.030;5.572;2022-11-30T02:29:57;24.59;;;17.69;;
15516;SDS011;7860;52.030;5.572;2022-11-30T02:30:58;23.41;;;17.37;;
15516;SDS011;7860;52.030;5.572;2022-11-30T02:31:59;23.91;;;17.58;;
15516;SDS011;7860;52.030;5.572;2022-11-30T02:33:00;23.76;;;16.88;;
15516;SDS011;7860;52.030;5.572;2022-11-30T02:33:59;21.83;;;16.21;;
15516;SDS011;7860;52.030;5.572;2022-11-30T02:35:00;24.95;;;17.87;;
15516;SDS011;7860;52.030;5.572;2022-11-30T02:36:03;24.67;;;17.62;;
15516;SDS011;7860;52.030;5.572;2022-11-30T02:37:01;23.37;;;16.96;;
15516;SDS011;7860;52.030;5.572;2022-11-30T02:38:01;23.18;;;16.37;;
15516;SDS011;7860;52.030;5.572;2022-11-30T02:39:05;23.68;;;16.60;;
15516;SDS011;7860;52.030;5.572;2022-11-30T02:40:05;25.96;;;17.31;;
15516;SDS011;7860;52.030;5.572;2022-11-30T02:41:02;21.21;;;14.11;;
15516;SDS011;7860;52.030;5.572;2022-11-30T02:42:04;21.34;;;14.52;;
15516;SDS011;7860;52.030;5.572;2022-11-30T02:43:04;24.35;;;16.17;;
15516;SDS011;7860;52.030;5.572;2022-11-30T02:44:04;23.30;;;16.36;;
15516;SDS011;7860;52.030;5.572;2022-11-30T02:45:05;24.35;;;15.74;;
15516;SDS011;7860;52.030;5.572;2022-11-30T02:46:06;21.32;;;14.90;;
15516;SDS011;7860;52.030;5.572;2022-11-30T02:47:09;22.49;;;15.45;;
15516;SDS011;7860;52.030;5.572;2022-11-30T02:48:07;24.85;;;16.51;;
15516;SDS011;7860;52.030;5.572;2022-11-30T02:49:08;23.76;;;16.82;;
15516;SDS011;7860;52.030;5.572;2022-11-30T02:50:08;24.85;;;16.10;;
15516;SDS011;7860;52.030;5.572;2022-11-30T02:51:08;24.02;;;16.18;;
15516;SDS011;7860;52.030;5.572;2022-11-30T02:52:08;23.93;;;15.53;;
15516;SDS011;7860;52.030;5.572;2022-11-30T02:53:09;22.35;;;15.34;;
15516;SDS011;7860;52.030;5.572;2022-11-30T02:54:09;24.78;;;16.67;;
15516;SDS011;7860;52.030;5.572;2022-11-30T02:55:10;25.20;;;16.10;;
15516;SDS011;7860;52.030;5.572;2022-11-30T02:56:10;23.44;;;15.68;;
15516;SDS011;7860;52.030;5.572;2022-11-30T02:57:13;23.36;;;15.94;;
15516;SDS011;7860;52.030;5.572;2022-11-30T02:58:10;23.13;;;16.31;;
15516;SDS011;7860;52.030;5.572;2022-11-30T02:59:10;23.09;;;15.84;;
15516;SDS011;7860;52.030;5.572;2022-11-30T03:00:12;24.21;;;16.78;;
15516;SDS011;7860;52.030;5.572;2022-11-30T03:01:11;23.53;;;16.31;;
15516;SDS011;7860;52.030;5.572;2022-11-30T03:02:11;25.07;;;16.59;;
15516;SDS011;7860;52.030;5.572;2022-11-30T03:03:12;24.64;;;17.18;;
15516;SDS011;7860;52.030;5.572;2022-11-30T03:04:13;23.88;;;16.16;;
15516;SDS011;7860;52.030;5.572;2022-11-30T03:05:13;24.04;;;16.41;;
15516;SDS011;7860;52.030;5.572;2022-11-30T03:06:14;25.18;;;16.32;;
15516;SDS011;7860;52.030;5.572;2022-11-30T03:07:17;24.99;;;16.37;;
15516;SDS011;7860;52.030;5.572;2022-11-30T03:08:17;25.04;;;16.94;;
15516;SDS011;7860;52.030;5.572;2022-11-30T03:09:15;24.71;;;16.86;;
15516;SDS011;7860;52.030;5.572;2022-11-30T03:10:15;22.79;;;16.88;;
15516;SDS011;7860;52.030;5.572;2022-11-30T03:11:16;23.72;;;15.97;;
15516;SDS011;7860;52.030;5.572;2022-11-30T03:12:16;27.02;;;17.26;;
15516;SDS011;7860;52.030;5.572;2022-11-30T03:13:17;25.90;;;16.51;;
15516;SDS011;7860;52.030;5.572;2022-11-30T03:14:17;26.60;;;16.97;;
15516;SDS011;7860;52.030;5.572;2022-11-30T03:15:17;23.01;;;16.34;;
15516;SDS011;7860;52.030;5.572;2022-11-30T03:16:18;24.89;;;16.58;;
15516;SDS011;7860;52.030;5.572;2022-11-30T03:17:18;24.20;;;16.36;;
15516;SDS011;7860;52.030;5.572;2022-11-30T03:18:18;25.98;;;16.75;;
15516;SDS011;7860;52.030;5.572;2022-11-30T03:19:19;24.95;;;17.35;;
15516;SDS011;7860;52.030;5.572;2022-11-30T03:20:22;24.77;;;16.40;;
15516;SDS011;7860;52.030;5.572;2022-11-30T03:21:20;25.07;;;16.24;;
15516;SDS011;7860;52.030;5.572;2022-11-30T03:22:19;25.43;;;17.43;;
15516;SDS011;7860;52.030;5.572;2022-11-30T03:23:23;24.99;;;16.23;;
15516;SDS011;7860;52.030;5.572;2022-11-30T03:24:20;25.32;;;17.27;;
15516;SDS011;7860;52.030;5.572;2022-11-30T03:25:21;27.56;;;17.26;;
15516;SDS011;7860;52.030;5.572;2022-11-30T03:26:21;25.67;;;17.49;;
15516;SDS011;7860;52.030;5.572;2022-11-30T03:27:22;25.80;;;17.60;;
15516;SDS011;7860;52.030;5.572;2022-11-30T03:28:22;25.53;;;16.69;;
15516;SDS011;7860;52.030;5.572;2022-11-30T03:29:22;25.53;;;16.83;;
15516;SDS011;7860;52.030;5.572;2022-11-30T03:30:23;25.59;;;17.09;;
15516;SDS011;7860;52.030;5.572;2022-11-30T03:31:23;24.25;;;16.19;;
15516;SDS011;7860;52.030;5.572;2022-11-30T03:32:24;24.89;;;16.45;;
15516;SDS011;7860;52.030;5.572;2022-11-30T03:33:24;26.76;;;17.13;;
15516;SDS011;7860;52.030;5.572;2022-11-30T03:34:25;25.88;;;16.63;;
15516;SDS011;7860;52.030;5.572;2022-11-30T03:35:25;26.77;;;17.49;;
15516;SDS011;7860;52.030;5.572;2022-11-30T03:36:26;25.33;;;16.71;;
15516;SDS011;7860;52.030;5.572;2022-11-30T03:37:26;26.35;;;17.22;;
15516;SDS011;7860;52.030;5.572;2022-11-30T03:38:27;26.58;;;17.35;;
15516;SDS011;7860;52.030;5.572;2022-11-30T03:39:27;25.15;;;16.96;;
15516;SDS011;7860;52.030;5.572;2022-11-30T03:40:27;25.97;;;17.32;;
15516;SDS011;7860;52.030;5.572;2022-11-30T03:41:28;26.16;;;17.81;;
15516;SDS011;7860;52.030;5.572;2022-11-30T03:42:28;26.72;;;17.57;;
15516;SDS011;7860;52.030;5.572;2022-11-30T03:43:28;27.19;;;17.73;;
15516;SDS011;7860;52.030;5.572;2022-11-30T03:44:29;25.13;;;17.07;;
15516;SDS011;7860;52.030;5.572;2022-11-30T03:45:32;29.56;;;17.87;;
15516;SDS011;7860;52.030;5.572;2022-11-30T03:46:30;26.35;;;17.30;;
15516;SDS011;7860;52.030;5.572;2022-11-30T03:47:30;27.46;;;18.17;;
15516;SDS011;7860;52.030;5.572;2022-11-30T03:48:31;26.66;;;17.97;;
15516;SDS011;7860;52.030;5.572;2022-11-30T03:49:34;26.89;;;18.60;;
15516;SDS011;7860;52.030;5.572;2022-11-30T03:50:35;24.85;;;17.26;;
15516;SDS011;7860;52.030;5.572;2022-11-30T03:51:32;29.75;;;18.55;;
15516;SDS011;7860;52.030;5.572;2022-11-30T03:52:33;26.45;;;18.81;;
15516;SDS011;7860;52.030;5.572;2022-11-30T03:53:33;27.51;;;18.46;;
15516;SDS011;7860;52.030;5.572;2022-11-30T03:54:33;32.40;;;18.76;;
15516;SDS011;7860;52.030;5.572;2022-11-30T03:55:40;27.37;;;18.59;;
15516;SDS011;7860;52.030;5.572;2022-11-30T03:56:34;28.91;;;18.80;;
15516;SDS011;7860;52.030;5.572;2022-11-30T03:57:38;26.59;;;17.89;;
15516;SDS011;7860;52.030;5.572;2022-11-30T03:58:35;27.05;;;18.25;;
15516;SDS011;7860;52.030;5.572;2022-11-30T03:59:35;24.98;;;17.45;;
15516;SDS011;7860;52.030;5.572;2022-11-30T04:00:36;25.62;;;18.21;;
15516;SDS011;7860;52.030;5.572;2022-11-30T04:01:36;28.11;;;18.69;;
15516;SDS011;7860;52.030;5.572;2022-11-30T04:02:36;26.24;;;17.87;;
15516;SDS011;7860;52.030;5.572;2022-11-30T04:03:37;26.01;;;18.14;;
15516;SDS011;7860;52.030;5.572;2022-11-30T04:04:36;25.13;;;17.52;;
15516;SDS011;7860;52.030;5.572;2022-11-30T04:05:37;28.51;;;19.58;;
15516;SDS011;7860;52.030;5.572;2022-11-30T04:06:38;30.30;;;19.40;;
15516;SDS011;7860;52.030;5.572;2022-11-30T04:07:38;25.88;;;18.58;;
15516;SDS011;7860;52.030;5.572;2022-11-30T04:08:42;27.76;;;19.18;;
15516;SDS011;7860;52.030;5.572;2022-11-30T04:09:39;28.84;;;19.55;;
15516;SDS011;7860;52.030;5.572;2022-11-30T04:10:39;28.27;;;19.65;;
15516;SDS011;7860;52.030;5.572;2022-11-30T04:11:43;29.38;;;19.48;;
15516;SDS011;7860;52.030;5.572;2022-11-30T04:12:43;28.28;;;19.49;;
15516;SDS011;7860;52.030;5.572;2022-11-30T04:13:41;28.47;;;19.05;;
15516;SDS011;7860;52.030;5.572;2022-11-30T04:14:41;29.33;;;19.40;;
15516;SDS011;7860;52.030;5.572;2022-11-30T04:15:42;26.71;;;18.05;;
15516;SDS011;7860;52.030;5.572;2022-11-30T04:16:42;27.63;;;19.21;;
15516;SDS011;7860;52.030;5.572;2022-11-30T04:17:43;29.94;;;19.38;;
15516;SDS011;7860;52.030;5.572;2022-11-30T04:18:43;28.78;;;19.21;;
15516;SDS011;7860;52.030;5.572;2022-11-30T04:19:44;28.64;;;18.50;;
15516;SDS011;7860;52.030;5.572;2022-11-30T04:20:44;28.49;;;18.86;;
15516;SDS011;7860;52.030;5.572;2022-11-30T04:21:45;27.49;;;17.83;;
15516;SDS011;7860;52.030;5.572;2022-11-30T04:22:48;27.30;;;17.84;;
15516;SDS011;7860;52.030;5.572;2022-11-30T04:23:46;27.09;;;17.24;;
15516;SDS011;7860;52.030;5.572;2022-11-30T04:24:46;24.83;;;16.39;;
15516;SDS011;7860;52.030;5.572;2022-11-30T04:25:47;24.53;;;16.69;;
15516;SDS011;7860;52.030;5.572;2022-11-30T04:26:47;28.77;;;18.78;;
15516;SDS011;7860;52.030;5.572;2022-11-30T04:27:48;28.15;;;18.50;;
15516;SDS011;7860;52.030;5.572;2022-11-30T04:28:48;26.47;;;18.21;;
15516;SDS011;7860;52.030;5.572;2022-11-30T04:29:49;27.45;;;18.28;;
15516;SDS011;7860;52.030;5.572;2022-11-30T04:30:49;27.36;;;18.26;;
15516;SDS011;7860;52.030;5.572;2022-11-30T04:31:50;28.16;;;18.14;;
15516;SDS011;7860;52.030;5.572;2022-11-30T04:32:51;28.05;;;18.43;;
15516;SDS011;7860;52.030;5.572;2022-11-30T04:33:51;26.74;;;18.18;;
15516;SDS011;7860;52.030;5.572;2022-11-30T04:34:51;25.75;;;17.55;;
15516;SDS011;7860;52.030;5.572;2022-11-30T04:35:57;28.05;;;18.39;;
15516;SDS011;7860;52.030;5.572;2022-11-30T04:36:52;29.57;;;18.73;;
15516;SDS011;7860;52.030;5.572;2022-11-30T04:37:53;26.82;;;17.53;;
15516;SDS011;7860;52.030;5.572;2022-11-30T04:38:53;29.28;;;18.71;;
15516;SDS011;7860;52.030;5.572;2022-11-30T04:39:53;30.15;;;18.83;;
15516;SDS011;7860;52.030;5.572;2022-11-30T04:40:54;24.61;;;16.57;;
15516;SDS011;7860;52.030;5.572;2022-11-30T04:41:54;25.72;;;17.47;;
15516;SDS011;7860;52.030;5.572;2022-11-30T04:42:55;26.84;;;17.87;;
15516;SDS011;7860;52.030;5.572;2022-11-30T04:43:55;28.59;;;18.76;;
15516;SDS011;7860;52.030;5.572;2022-11-30T04:44:55;26.84;;;19.01;;
15516;SDS011;7860;52.030;5.572;2022-11-30T04:45:56;27.35;;;18.46;;
15516;SDS011;7860;52.030;5.572;2022-11-30T04:46:57;26.58;;;18.18;;
15516;SDS011;7860;52.030;5.572;2022-11-30T04:47:57;28.05;;;17.91;;
15516;SDS011;7860;52.030;5.572;2022-11-30T04:48:57;27.92;;;18.80;;
15516;SDS011;7860;52.030;5.572;2022-11-30T04:49:57;27.01;;;17.62;;
15516;SDS011;7860;52.030;5.572;2022-11-30T04:50:59;32.56;;;19.46;;
15516;SDS011;7860;52.030;5.572;2022-11-30T04:51:58;30.31;;;19.88;;
15516;SDS011;7860;52.030;5.572;2022-11-30T04:52:58;30.68;;;19.34;;
15516;SDS011;7860;52.030;5.572;2022-11-30T04:53:59;29.08;;;19.49;;
15516;SDS011;7860;52.030;5.572;2022-11-30T04:55:00;29.98;;;19.59;;
15516;SDS011;7860;52.030;5.572;2022-11-30T04:56:03;27.77;;;19.04;;
15516;SDS011;7860;52.030;5.572;2022-11-30T04:57:01;29.48;;;18.73;;
15516;SDS011;7860;52.030;5.572;2022-11-30T04:58:01;27.54;;;18.51;;
15516;SDS011;7860;52.030;5.572;2022-11-30T04:59:02;30.23;;;19.03;;
15516;SDS011;7860;52.030;5.572;2022-11-30T05:00:04;29.27;;;19.74;;
15516;SDS011;7860;52.030;5.572;2022-11-30T05:01:03;27.65;;;19.11;;
15516;SDS011;7860;52.030;5.572;2022-11-30T05:02:04;29.33;;;18.91;;
15516;SDS011;7860;52.030;5.572;2022-11-30T05:03:04;30.15;;;20.18;;
15516;SDS011;7860;52.030;5.572;2022-11-30T05:04:04;29.87;;;20.46;;
15516;SDS011;7860;52.030;5.572;2022-11-30T05:05:05;31.23;;;19.17;;
15516;SDS011;7860;52.030;5.572;2022-11-30T05:06:06;29.64;;;19.88;;
15516;SDS011;7860;52.030;5.572;2022-11-30T05:07:06;31.17;;;19.84;;
15516;SDS011;7860;52.030;5.572;2022-11-30T05:08:07;33.37;;;21.10;;
15516;SDS011;7860;52.030;5.572;2022-11-30T05:09:07;32.25;;;20.71;;
15516;SDS011;7860;52.030;5.572;2022-11-30T05:10:08;34.07;;;21.81;;
15516;SDS011;7860;52.030;5.572;2022-11-30T05:11:08;31.13;;;20.57;;
15516;SDS011;7860;52.030;5.572;2022-11-30T05:12:08;33.42;;;21.47;;
15516;SDS011;7860;52.030;5.572;2022-11-30T05:13:09;33.86;;;21.68;;
15516;SDS011;7860;52.030;5.572;2022-11-30T05:14:09;32.96;;;22.19;;
15516;SDS011;7860;52.030;5.572;2022-11-30T05:15:10;33.35;;;21.44;;
15516;SDS011;7860;52.030;5.572;2022-11-30T05:16:10;31.67;;;21.77;;
15516;SDS011;7860;52.030;5.572;2022-11-30T05:17:11;34.58;;;23.21;;
15516;SDS011;7860;52.030;5.572;2022-11-30T05:18:14;35.06;;;23.89;;
15516;SDS011;7860;52.030;5.572;2022-11-30T05:19:15;34.95;;;23.84;;
15516;SDS011;7860;52.030;5.572;2022-11-30T05:20:12;36.25;;;23.72;;
15516;SDS011;7860;52.030;5.572;2022-11-30T05:21:13;32.30;;;23.54;;
15516;SDS011;7860;52.030;5.572;2022-11-30T05:22:13;35.38;;;24.74;;
15516;SDS011;7860;52.030;5.572;2022-11-30T05:23:14;38.50;;;25.57;;
15516;SDS011;7860;52.030;5.572;2022-11-30T05:24:14;34.66;;;24.82;;
15516;SDS011;7860;52.030;5.572;2022-11-30T05:25:15;36.70;;;24.89;;
15516;SDS011;7860;52.030;5.572;2022-11-30T05:26:15;34.02;;;24.00;;
15516;SDS011;7860;52.030;5.572;2022-11-30T05:27:16;35.21;;;24.52;;
15516;SDS011;7860;52.030;5.572;2022-11-30T05:28:17;34.74;;;22.23;;
15516;SDS011;7860;52.030;5.572;2022-11-30T05:29:17;34.74;;;23.99;;
15516;SDS011;7860;52.030;5.572;2022-11-30T05:30:18;37.49;;;24.70;;
15516;SDS011;7860;52.030;5.572;2022-11-30T05:31:18;35.03;;;24.42;;
15516;SDS011;7860;52.030;5.572;2022-11-30T05:32:19;36.55;;;24.74;;
15516;SDS011;7860;52.030;5.572;2022-11-30T05:33:19;34.95;;;24.12;;
15516;SDS011;7860;52.030;5.572;2022-11-30T05:34:23;35.79;;;23.85;;
15516;SDS011;7860;52.030;5.572;2022-11-30T05:35:20;38.63;;;24.93;;
15516;SDS011;7860;52.030;5.572;2022-11-30T05:36:21;40.26;;;24.96;;
15516;SDS011;7860;52.030;5.572;2022-11-30T05:37:21;38.56;;;25.20;;
15516;SDS011;7860;52.030;5.572;2022-11-30T05:38:22;34.66;;;23.43;;
15516;SDS011;7860;52.030;5.572;2022-11-30T05:39:23;37.98;;;25.31;;
15516;SDS011;7860;52.030;5.572;2022-11-30T05:40:23;38.43;;;25.32;;
15516;SDS011;7860;52.030;5.572;2022-11-30T05:41:23;41.61;;;26.40;;
15516;SDS011;7860;52.030;5.572;2022-11-30T05:42:24;40.97;;;25.36;;
15516;SDS011;7860;52.030;5.572;2022-11-30T05:43:27;40.80;;;26.97;;
15516;SDS011;7860;52.030;5.572;2022-11-30T05:44:25;43.48;;;26.51;;
15516;SDS011;7860;52.030;5.572;2022-11-30T05:45:26;39.36;;;25.44;;
15516;SDS011;7860;52.030;5.572;2022-11-30T05:46:26;38.96;;;26.00;;
15516;SDS011;7860;52.030;5.572;2022-11-30T05:47:26;39.33;;;25.27;;
15516;SDS011;7860;52.030;5.572;2022-11-30T05:48:27;43.04;;;27.15;;
15516;SDS011;7860;52.030;5.572;2022-11-30T05:49:28;41.87;;;27.69;;
15516;SDS011;7860;52.030;5.572;2022-11-30T05:50:27;44.92;;;27.57;;
15516;SDS011;7860;52.030;5.572;2022-11-30T05:51:38;40.28;;;24.97;;
15516;SDS011;7860;52.030;5.572;2022-11-30T05:52:28;38.71;;;25.86;;
15516;SDS011;7860;52.030;5.572;2022-11-30T05:53:29;40.12;;;26.06;;
15516;SDS011;7860;52.030;5.572;2022-11-30T05:54:30;41.82;;;26.35;;
15516;SDS011;7860;52.030;5.572;2022-11-30T05:55:30;44.34;;;27.30;;
15516;SDS011;7860;52.030;5.572;2022-11-30T05:56:31;41.18;;;26.34;;
15516;SDS011;7860;52.030;5.572;2022-11-30T05:57:34;41.75;;;26.32;;
15516;SDS011;7860;52.030;5.572;2022-11-30T05:58:33;40.61;;;25.74;;
15516;SDS011;7860;52.030;5.572;2022-11-30T05:59:32;40.74;;;25.38;;
15516;SDS011;7860;52.030;5.572;2022-11-30T06:00:33;41.99;;;27.28;;